VTPH

Details ICAO VTPH (HHQ)
Name Hua Hin
Region Thailand
Timezone Asia/Bangkok (UTC+7.0)
Plans Departing 11
Arriving 16
Stats Elevation 62 ft / 19 m (AMSL)
Location 12.636225° 99.951530°
Runways 1
Magnetic Variation 0.517° W
Sunrise 2018-05-24 22:55:14 UTC / 2018-05-25 05:55:14 Local
Sunset 2018-05-25 11:41:50 UTC / 2018-05-25 18:41:50 Local
Advertisement - Login to hide

Runways

ID Width Length Bearing (true) Bearing (mag) Surface Threshold Offset Overrun Length
16 115 ft / 35 m 6,935 ft / 2,114 m 159.78° 160.30° Asphalt 0 ft / 0 m 197 ft / 60 m
34 115 ft / 35 m 6,935 ft / 2,114 m 339.78° 340.30° Asphalt 492 ft / 150 m 95 ft / 29 m

Map

Weather


0- 5 10 15 20 25 30 35+ Temperature / ° C

Clouds and Precipitation
Forecast for 2018-05-25 00:00 UTC. Updated 4 hours ago

Ground ~20,000 ft ~40,000 ft Winds

METAR

VTPH 250300Z VRB02KT 9999 FEW028 31/25 Q1009 NOSIG

TAF

TAF VTPH 242300Z 2500/2524 VRB02KT 9999 FEW030 BECMG 2502/2504 13008KT TEMPO 2506/2512 VRB10KT 5000 TSRA FEW018CB SCT020 BKN100 BECMG 2512/2514 20005KT BECMG 2518/2520 VRB02KT

Frequencies

Ground 121.90 MHz GND
Approach 126.20 MHz APP
Tower 122.70 MHz TWR
Warning: Do not use this data for real-world aviation or navigation. No guarantee of current accuracy is given.